sensor_id;sensor_type;location;lat;lon;timestamp;pressure;altitude;pressure_sealevel;temperature;humidity
56006;BME280;41888;44.696;10.522;2022-12-24T00:00:31;100418.59;;;6.61;100.00
56006;BME280;41888;44.696;10.522;2022-12-24T00:02:57;100422.88;;;6.62;100.00
56006;BME280;41888;44.696;10.522;2022-12-24T00:05:23;100419.22;;;6.63;100.00
56006;BME280;41888;44.696;10.522;2022-12-24T00:07:49;100434.94;;;6.64;100.00
56006;BME280;41888;44.696;10.522;2022-12-24T00:10:15;100444.50;;;6.65;100.00
56006;BME280;41888;44.696;10.522;2022-12-24T00:12:42;100453.59;;;6.63;100.00
56006;BME280;41888;44.696;10.522;2022-12-24T00:15:08;100465.81;;;6.64;100.00
56006;BME280;41888;44.696;10.522;2022-12-24T00:17:34;100467.81;;;6.62;100.00
56006;BME280;41888;44.696;10.522;2022-12-24T00:20:01;100471.28;;;6.62;100.00
56006;BME280;41888;44.696;10.522;2022-12-24T00:22:27;100468.84;;;6.61;100.00
56006;BME280;41888;44.696;10.522;2022-12-24T00:24:53;100459.25;;;6.60;100.00
56006;BME280;41888;44.696;10.522;2022-12-24T00:27:19;100450.34;;;6.61;100.00
56006;BME280;41888;44.696;10.522;2022-12-24T00:29:45;100437.81;;;6.55;100.00
56006;BME280;41888;44.696;10.522;2022-12-24T00:32:12;100421.97;;;6.55;100.00
56006;BME280;41888;44.696;10.522;2022-12-24T00:34:38;100447.38;;;6.56;100.00
56006;BME280;41888;44.696;10.522;2022-12-24T00:37:06;100475.47;;;6.57;100.00
56006;BME280;41888;44.696;10.522;2022-12-24T00:39:33;100463.22;;;6.56;100.00
56006;BME280;41888;44.696;10.522;2022-12-24T00:41:59;100448.56;;;6.53;100.00
56006;BME280;41888;44.696;10.522;2022-12-24T00:44:25;100450.22;;;6.54;100.00
56006;BME280;41888;44.696;10.522;2022-12-24T00:46:51;100458.16;;;6.54;100.00
56006;BME280;41888;44.696;10.522;2022-12-24T00:49:18;100454.69;;;6.54;100.00
56006;BME280;41888;44.696;10.522;2022-12-24T00:51:44;100455.31;;;6.56;100.00
56006;BME280;41888;44.696;10.522;2022-12-24T00:54:14;100471.16;;;6.56;100.00
56006;BME280;41888;44.696;10.522;2022-12-24T00:56:41;100471.00;;;6.57;100.00
56006;BME280;41888;44.696;10.522;2022-12-24T00:59:07;100475.28;;;6.58;100.00
56006;BME280;41888;44.696;10.522;2022-12-24T01:01:33;100483.38;;;6.57;100.00
56006;BME280;41888;44.696;10.522;2022-12-24T01:04:01;100479.59;;;6.59;100.00
56006;BME280;41888;44.696;10.522;2022-12-24T01:06:45;100472.00;;;6.56;100.00
56006;BME280;41888;44.696;10.522;2022-12-24T01:09:11;100459.44;;;6.58;100.00
56006;BME280;41888;44.696;10.522;2022-12-24T01:11:38;100444.72;;;6.56;100.00
56006;BME280;41888;44.696;10.522;2022-12-24T01:14:04;100430.72;;;6.55;100.00
56006;BME280;41888;44.696;10.522;2022-12-24T01:16:30;100437.44;;;6.58;100.00
56006;BME280;41888;44.696;10.522;2022-12-24T01:18:56;100466.19;;;6.61;100.00
56006;BME280;41888;44.696;10.522;2022-12-24T01:21:23;100481.84;;;6.62;100.00
56006;BME280;41888;44.696;10.522;2022-12-24T01:23:49;100468.63;;;6.62;100.00
56006;BME280;41888;44.696;10.522;2022-12-24T01:26:15;100492.25;;;6.64;100.00
56006;BME280;41888;44.696;10.522;2022-12-24T01:28:41;100538.84;;;6.65;100.00
56006;BME280;41888;44.696;10.522;2022-12-24T01:31:16;100542.66;;;6.62;100.00
56006;BME280;41888;44.696;10.522;2022-12-24T01:33:44;100530.28;;;6.63;100.00
56006;BME280;41888;44.696;10.522;2022-12-24T01:36:11;100540.69;;;6.64;100.00
56006;BME280;41888;44.696;10.522;2022-12-24T01:38:38;100527.28;;;6.66;100.00
56006;BME280;41888;44.696;10.522;2022-12-24T01:41:05;100546.59;;;6.66;100.00
56006;BME280;41888;44.696;10.522;2022-12-24T01:43:50;100546.91;;;6.71;100.00
56006;BME280;41888;44.696;10.522;2022-12-24T01:46:21;100540.06;;;6.77;100.00
56006;BME280;41888;44.696;10.522;2022-12-24T01:48:56;100540.44;;;6.74;100.00
56006;BME280;41888;44.696;10.522;2022-12-24T01:54:27;100570.06;;;6.69;100.00
56006;BME280;41888;44.696;10.522;2022-12-24T01:56:57;100570.88;;;6.70;100.00
56006;BME280;41888;44.696;10.522;2022-12-24T01:59:26;100586.03;;;6.76;100.00
56006;BME280;41888;44.696;10.522;2022-12-24T02:01:53;100590.13;;;6.78;100.00
56006;BME280;41888;44.696;10.522;2022-12-24T02:04:41;100593.91;;;6.84;100.00
56006;BME280;41888;44.696;10.522;2022-12-24T02:07:09;100584.56;;;6.96;100.00
56006;BME280;41888;44.696;10.522;2022-12-24T02:09:36;100562.50;;;7.04;100.00
56006;BME280;41888;44.696;10.522;2022-12-24T02:12:04;100542.88;;;6.98;100.00
56006;BME280;41888;44.696;10.522;2022-12-24T02:14:31;100539.09;;;6.93;100.00
56006;BME280;41888;44.696;10.522;2022-12-24T02:17:08;100530.72;;;6.89;100.00
56006;BME280;41888;44.696;10.522;2022-12-24T02:27:58;100572.41;;;6.87;100.00
56006;BME280;41888;44.696;10.522;2022-12-24T02:30:32;100577.22;;;6.84;100.00
56006;BME280;41888;44.696;10.522;2022-12-24T02:35:49;100547.19;;;6.76;100.00
56006;BME280;41888;44.696;10.522;2022-12-24T02:38:28;100558.41;;;6.78;100.00
56006;BME280;41888;44.696;10.522;2022-12-24T02:41:06;100558.81;;;6.90;100.00
56006;BME280;41888;44.696;10.522;2022-12-24T02:43:35;100560.19;;;6.86;100.00
56006;BME280;41888;44.696;10.522;2022-12-24T02:46:08;100563.22;;;6.98;100.00
56006;BME280;41888;44.696;10.522;2022-12-24T02:48:37;100555.34;;;6.90;100.00
56006;BME280;41888;44.696;10.522;2022-12-24T02:51:08;100560.63;;;6.90;100.00
56006;BME280;41888;44.696;10.522;2022-12-24T02:53:36;100548.16;;;6.98;100.00
56006;BME280;41888;44.696;10.522;2022-12-24T03:01:49;100524.88;;;6.94;100.00
56006;BME280;41888;44.696;10.522;2022-12-24T03:07:20;100505.22;;;6.96;100.00
56006;BME280;41888;44.696;10.522;2022-12-24T03:10:05;100502.56;;;6.96;100.00
56006;BME280;41888;44.696;10.522;2022-12-24T03:12:42;100512.88;;;7.06;100.00
56006;BME280;41888;44.696;10.522;2022-12-24T03:15:14;100511.78;;;7.00;100.00
56006;BME280;41888;44.696;10.522;2022-12-24T03:17:42;100505.91;;;6.90;100.00
56006;BME280;41888;44.696;10.522;2022-12-24T03:20:14;100496.34;;;6.89;100.00
56006;BME280;41888;44.696;10.522;2022-12-24T03:22:42;100509.00;;;6.79;100.00
56006;BME280;41888;44.696;10.522;2022-12-24T03:25:09;100524.72;;;6.95;100.00
56006;BME280;41888;44.696;10.522;2022-12-24T03:27:37;100531.72;;;6.88;100.00
56006;BME280;41888;44.696;10.522;2022-12-24T03:30:09;100540.69;;;6.87;100.00
56006;BME280;41888;44.696;10.522;2022-12-24T03:32:35;100532.53;;;6.89;100.00
56006;BME280;41888;44.696;10.522;2022-12-24T03:35:02;100523.44;;;6.91;100.00
56006;BME280;41888;44.696;10.522;2022-12-24T03:37:28;100525.25;;;6.91;100.00
56006;BME280;41888;44.696;10.522;2022-12-24T03:39:54;100516.66;;;6.89;100.00
56006;BME280;41888;44.696;10.522;2022-12-24T03:42:22;100500.81;;;6.89;100.00
56006;BME280;41888;44.696;10.522;2022-12-24T03:44:48;100497.75;;;6.77;100.00
56006;BME280;41888;44.696;10.522;2022-12-24T03:47:14;100485.44;;;6.69;100.00
56006;BME280;41888;44.696;10.522;2022-12-24T03:49:41;100498.28;;;6.72;100.00
56006;BME280;41888;44.696;10.522;2022-12-24T03:52:07;100505.06;;;6.75;100.00
56006;BME280;41888;44.696;10.522;2022-12-24T03:54:33;100515.19;;;6.71;100.00
56006;BME280;41888;44.696;10.522;2022-12-24T03:56:59;100519.44;;;6.95;100.00
56006;BME280;41888;44.696;10.522;2022-12-24T03:59:26;100530.44;;;7.21;100.00
56006;BME280;41888;44.696;10.522;2022-12-24T04:01:52;100517.56;;;7.18;100.00
56006;BME280;41888;44.696;10.522;2022-12-24T04:04:18;100509.97;;;7.15;100.00
56006;BME280;41888;44.696;10.522;2022-12-24T04:06:45;100501.31;;;7.07;100.00
56006;BME280;41888;44.696;10.522;2022-12-24T04:09:11;100478.59;;;6.98;100.00
56006;BME280;41888;44.696;10.522;2022-12-24T04:11:37;100504.38;;;6.96;100.00
56006;BME280;41888;44.696;10.522;2022-12-24T04:14:03;100515.13;;;6.94;100.00
56006;BME280;41888;44.696;10.522;2022-12-24T04:16:29;100511.22;;;6.90;100.00
56006;BME280;41888;44.696;10.522;2022-12-24T04:18:56;100510.38;;;6.90;100.00
56006;BME280;41888;44.696;10.522;2022-12-24T04:21:22;100506.75;;;6.91;100.00
56006;BME280;41888;44.696;10.522;2022-12-24T04:23:48;100516.41;;;6.98;100.00
56006;BME280;41888;44.696;10.522;2022-12-24T04:26:14;100503.72;;;6.94;100.00
56006;BME280;41888;44.696;10.522;2022-12-24T04:28:41;100482.78;;;6.92;100.00
56006;BME280;41888;44.696;10.522;2022-12-24T04:31:11;100476.00;;;6.90;100.00
56006;BME280;41888;44.696;10.522;2022-12-24T04:33:38;100488.41;;;6.89;100.00
56006;BME280;41888;44.696;10.522;2022-12-24T04:36:06;100483.13;;;6.89;100.00
56006;BME280;41888;44.696;10.522;2022-12-24T04:38:33;100479.09;;;6.93;100.00
56006;BME280;41888;44.696;10.522;2022-12-24T04:41:14;100477.81;;;6.89;100.00
56006;BME280;41888;44.696;10.522;2022-12-24T04:43:40;100476.38;;;6.87;100.00
56006;BME280;41888;44.696;10.522;2022-12-24T04:46:09;100472.91;;;6.86;100.00
56006;BME280;41888;44.696;10.522;2022-12-24T04:48:36;100477.19;;;6.87;100.00
56006;BME280;41888;44.696;10.522;2022-12-24T04:51:04;100469.88;;;6.89;100.00
56006;BME280;41888;44.696;10.522;2022-12-24T04:53:31;100467.91;;;6.91;100.00
56006;BME280;41888;44.696;10.522;2022-12-24T04:55:58;100468.91;;;6.90;100.00
56006;BME280;41888;44.696;10.522;2022-12-24T04:58:24;100477.47;;;6.92;100.00
56006;BME280;41888;44.696;10.522;2022-12-24T05:00:51;100477.00;;;6.89;100.00
56006;BME280;41888;44.696;10.522;2022-12-24T05:03:18;100474.72;;;6.86;100.00
56006;BME280;41888;44.696;10.522;2022-12-24T05:05:44;100472.72;;;6.88;100.00
56006;BME280;41888;44.696;10.522;2022-12-24T05:08:10;100464.78;;;6.88;100.00
56006;BME280;41888;44.696;10.522;2022-12-24T05:10:36;100449.72;;;6.88;100.00
56006;BME280;41888;44.696;10.522;2022-12-24T05:13:03;100439.53;;;6.85;100.00
56006;BME280;41888;44.696;10.522;2022-12-24T05:15:29;100445.81;;;6.84;100.00
56006;BME280;41888;44.696;10.522;2022-12-24T05:17:55;100455.22;;;6.87;100.00
56006;BME280;41888;44.696;10.522;2022-12-24T05:20:23;100444.63;;;6.87;100.00
56006;BME280;41888;44.696;10.522;2022-12-24T05:22:49;100447.72;;;6.90;100.00
56006;BME280;41888;44.696;10.522;2022-12-24T05:25:37;100452.03;;;6.91;100.00
56006;BME280;41888;44.696;10.522;2022-12-24T05:28:23;100439.44;;;6.93;100.00
56006;BME280;41888;44.696;10.522;2022-12-24T05:30:49;100445.19;;;6.97;100.00
56006;BME280;41888;44.696;10.522;2022-12-24T05:33:15;100448.19;;;6.94;100.00
56006;BME280;41888;44.696;10.522;2022-12-24T05:35:42;100450.22;;;6.92;100.00
56006;BME280;41888;44.696;10.522;2022-12-24T05:38:08;100445.25;;;6.89;100.00
56006;BME280;41888;44.696;10.522;2022-12-24T05:40:34;100451.53;;;6.88;100.00
56006;BME280;41888;44.696;10.522;2022-12-24T05:43:00;100474.19;;;6.90;100.00
56006;BME280;41888;44.696;10.522;2022-12-24T05:45:27;100470.06;;;6.88;100.00
56006;BME280;41888;44.696;10.522;2022-12-24T05:47:53;100478.00;;;6.88;100.00
56006;BME280;41888;44.696;10.522;2022-12-24T05:50:19;100482.50;;;6.87;100.00
56006;BME280;41888;44.696;10.522;2022-12-24T05:52:45;100480.00;;;6.86;100.00
56006;BME280;41888;44.696;10.522;2022-12-24T05:55:11;100468.63;;;6.85;100.00
56006;BME280;41888;44.696;10.522;2022-12-24T05:57:39;100478.19;;;6.86;100.00
56006;BME280;41888;44.696;10.522;2022-12-24T06:00:06;100505.25;;;6.88;100.00
56006;BME280;41888;44.696;10.522;2022-12-24T06:02:33;100525.59;;;6.88;100.00
56006;BME280;41888;44.696;10.522;2022-12-24T06:04:59;100528.06;;;6.89;100.00
56006;BME280;41888;44.696;10.522;2022-12-24T06:07:25;100532.53;;;6.89;100.00
56006;BME280;41888;44.696;10.522;2022-12-24T06:09:51;100534.34;;;6.88;100.00
56006;BME280;41888;44.696;10.522;2022-12-24T06:12:18;100525.78;;;6.86;100.00
56006;BME280;41888;44.696;10.522;2022-12-24T06:14:44;100545.31;;;6.85;100.00
56006;BME280;41888;44.696;10.522;2022-12-24T06:17:10;100539.03;;;6.86;100.00
56006;BME280;41888;44.696;10.522;2022-12-24T06:19:36;100529.06;;;6.88;100.00
56006;BME280;41888;44.696;10.522;2022-12-24T06:22:02;100519.97;;;6.91;100.00
56006;BME280;41888;44.696;10.522;2022-12-24T06:24:28;100510.84;;;6.93;100.00
56006;BME280;41888;44.696;10.522;2022-12-24T06:26:55;100504.56;;;6.94;100.00
56006;BME280;41888;44.696;10.522;2022-12-24T06:29:21;100517.94;;;6.93;100.00
56006;BME280;41888;44.696;10.522;2022-12-24T06:31:47;100519.44;;;6.95;100.00
56006;BME280;41888;44.696;10.522;2022-12-24T06:34:13;100526.19;;;6.98;100.00
56006;BME280;41888;44.696;10.522;2022-12-24T06:36:39;100519.25;;;6.97;100.00
56006;BME280;41888;44.696;10.522;2022-12-24T06:39:05;100533.94;;;6.99;100.00
56006;BME280;41888;44.696;10.522;2022-12-24T06:41:32;100544.50;;;6.99;100.00
56006;BME280;41888;44.696;10.522;2022-12-24T06:43:58;100547.00;;;7.01;100.00
56006;BME280;41888;44.696;10.522;2022-12-24T06:46:24;100561.44;;;7.13;100.00
56006;BME280;41888;44.696;10.522;2022-12-24T06:48:50;100570.38;;;7.12;100.00
56006;BME280;41888;44.696;10.522;2022-12-24T06:51:17;100569.09;;;7.08;100.00
56006;BME280;41888;44.696;10.522;2022-12-24T06:53:45;100559.84;;;7.04;100.00
56006;BME280;41888;44.696;10.522;2022-12-24T06:56:12;100551.28;;;7.02;100.00
56006;BME280;41888;44.696;10.522;2022-12-24T06:58:39;100554.94;;;7.01;100.00
56006;BME280;41888;44.696;10.522;2022-12-24T07:01:08;100558.72;;;6.98;100.00
56006;BME280;41888;44.696;10.522;2022-12-24T07:03:34;100555.91;;;7.00;100.00
56006;BME280;41888;44.696;10.522;2022-12-24T07:06:00;100556.88;;;7.07;100.00
56006;BME280;41888;44.696;10.522;2022-12-24T07:08:26;100567.75;;;7.27;100.00
56006;BME280;41888;44.696;10.522;2022-12-24T07:10:53;100567.97;;;7.40;100.00
56006;BME280;41888;44.696;10.522;2022-12-24T07:13:19;100561.56;;;7.34;100.00
56006;BME280;41888;44.696;10.522;2022-12-24T07:15:45;100547.25;;;7.43;100.00
56006;BME280;41888;44.696;10.522;2022-12-24T07:18:12;100542.94;;;7.28;100.00
56006;BME280;41888;44.696;10.522;2022-12-24T07:20:38;100537.38;;;7.22;100.00
56006;BME280;41888;44.696;10.522;2022-12-24T07:23:04;100548.94;;;7.21;100.00
56006;BME280;41888;44.696;10.522;2022-12-24T07:25:30;100548.13;;;7.21;100.00
56006;BME280;41888;44.696;10.522;2022-12-24T07:27:56;100559.94;;;7.33;100.00
56006;BME280;41888;44.696;10.522;2022-12-24T07:30:23;100559.09;;;7.33;100.00
56006;BME280;41888;44.696;10.522;2022-12-24T07:32:50;100562.41;;;7.35;100.00
56006;BME280;41888;44.696;10.522;2022-12-24T07:35:16;100563.41;;;7.34;100.00
56006;BME280;41888;44.696;10.522;2022-12-24T07:37:42;100555.09;;;7.37;100.00
56006;BME280;41888;44.696;10.522;2022-12-24T07:40:09;100540.69;;;7.39;100.00
56006;BME280;41888;44.696;10.522;2022-12-24T07:42:35;100535.44;;;7.31;100.00
56006;BME280;41888;44.696;10.522;2022-12-24T07:45:01;100532.25;;;7.21;100.00
56006;BME280;41888;44.696;10.522;2022-12-24T07:47:27;100527.63;;;7.23;100.00
56006;BME280;41888;44.696;10.522;2022-12-24T07:49:53;100542.38;;;7.17;100.00
56006;BME280;41888;44.696;10.522;2022-12-24T07:52:20;100547.13;;;7.22;100.00
56006;BME280;41888;44.696;10.522;2022-12-24T07:54:46;100552.25;;;7.38;100.00
56006;BME280;41888;44.696;10.522;2022-12-24T07:57:12;100549.25;;;7.41;100.00
56006;BME280;41888;44.696;10.522;2022-12-24T07:59:38;100547.59;;;7.40;100.00
56006;BME280;41888;44.696;10.522;2022-12-24T08:02:04;100549.72;;;7.45;100.00
56006;BME280;41888;44.696;10.522;2022-12-24T08:04:31;100557.28;;;7.48;100.00
56006;BME280;41888;44.696;10.522;2022-12-24T08:07:02;100560.75;;;7.48;100.00
56006;BME280;41888;44.696;10.522;2022-12-24T08:09:31;100555.28;;;7.50;100.00
56006;BME280;41888;44.696;10.522;2022-12-24T08:11:57;100547.97;;;7.52;100.00
56006;BME280;41888;44.696;10.522;2022-12-24T08:14:23;100562.50;;;7.56;100.00
56006;BME280;41888;44.696;10.522;2022-12-24T08:16:50;100582.31;;;7.60;100.00
56006;BME280;41888;44.696;10.522;2022-12-24T08:19:16;100599.47;;;7.64;100.00
56006;BME280;41888;44.696;10.522;2022-12-24T08:21:42;100612.72;;;7.64;100.00
56006;BME280;41888;44.696;10.522;2022-12-24T08:24:08;100615.09;;;7.59;100.00
56006;BME280;41888;44.696;10.522;2022-12-24T08:26:34;100621.22;;;7.59;100.00
56006;BME280;41888;44.696;10.522;2022-12-24T08:29:01;100618.75;;;7.58;100.00
56006;BME280;41888;44.696;10.522;2022-12-24T08:31:28;100627.13;;;7.61;100.00
56006;BME280;41888;44.696;10.522;2022-12-24T08:33:54;100627.34;;;7.60;100.00
56006;BME280;41888;44.696;10.522;2022-12-24T08:36:21;100624.84;;;7.58;100.00
56006;BME280;41888;44.696;10.522;2022-12-24T08:38:47;100631.16;;;7.57;100.00
56006;BME280;41888;44.696;10.522;2022-12-24T08:41:13;100633.63;;;7.59;100.00
56006;BME280;41888;44.696;10.522;2022-12-24T08:43:39;100639.28;;;7.56;100.00
56006;BME280;41888;44.696;10.522;2022-12-24T08:46:05;100650.06;;;7.54;100.00
56006;BME280;41888;44.696;10.522;2022-12-24T08:48:32;100655.19;;;7.56;100.00
56006;BME280;41888;44.696;10.522;2022-12-24T08:50:58;100660.47;;;7.56;100.00
56006;BME280;41888;44.696;10.522;2022-12-24T08:53:25;100669.22;;;7.56;100.00
56006;BME280;41888;44.696;10.522;2022-12-24T08:55:51;100662.31;;;7.55;100.00
56006;BME280;41888;44.696;10.522;2022-12-24T08:58:17;100655.97;;;7.56;100.00
56006;BME280;41888;44.696;10.522;2022-12-24T09:00:43;100655.25;;;7.62;100.00
56006;BME280;41888;44.696;10.522;2022-12-24T09:03:13;100663.69;;;7.66;100.00
56006;BME280;41888;44.696;10.522;2022-12-24T09:05:39;100665.97;;;7.69;100.00
56006;BME280;41888;44.696;10.522;2022-12-24T09:08:06;100662.50;;;7.69;100.00
56006;BME280;41888;44.696;10.522;2022-12-24T09:10:32;100666.06;;;7.76;100.00
56006;BME280;41888;44.696;10.522;2022-12-24T09:12:58;100670.81;;;7.80;100.00
56006;BME280;41888;44.696;10.522;2022-12-24T09:15:24;100670.00;;;7.80;100.00
56006;BME280;41888;44.696;10.522;2022-12-24T09:17:50;100676.78;;;7.82;100.00
56006;BME280;41888;44.696;10.522;2022-12-24T09:20:16;100682.34;;;7.87;100.00
56006;BME280;41888;44.696;10.522;2022-12-24T09:22:43;100694.56;;;7.88;100.00
56006;BME280;41888;44.696;10.522;2022-12-24T09:25:09;100688.66;;;7.86;100.00
56006;BME280;41888;44.696;10.522;2022-12-24T09:27:36;100692.94;;;7.87;100.00
56006;BME280;41888;44.696;10.522;2022-12-24T09:30:04;100705.53;;;7.85;100.00
56006;BME280;41888;44.696;10.522;2022-12-24T09:32:30;100722.38;;;7.92;100.00
56006;BME280;41888;44.696;10.522;2022-12-24T09:34:56;100715.53;;;7.98;100.00
56006;BME280;41888;44.696;10.522;2022-12-24T09:37:23;100712.69;;;7.99;100.00
56006;BME280;41888;44.696;10.522;2022-12-24T09:39:49;100716.69;;;7.95;100.00
56006;BME280;41888;44.696;10.522;2022-12-24T09:47:51;100702.19;;;7.91;100.00
56006;BME280;41888;44.696;10.522;2022-12-24T09:55:59;100675.13;;;7.96;100.00
56006;BME280;41888;44.696;10.522;2022-12-24T09:58:31;100680.81;;;7.93;100.00
56006;BME280;41888;44.696;10.522;2022-12-24T10:00:58;100679.63;;;7.95;100.00
56006;BME280;41888;44.696;10.522;2022-12-24T10:03:25;100687.66;;;7.87;100.00
56006;BME280;41888;44.696;10.522;2022-12-24T10:09:20;100683.25;;;7.94;100.00
56006;BME280;41888;44.696;10.522;2022-12-24T10:19:42;100713.34;;;8.16;100.00
56006;BME280;41888;44.696;10.522;2022-12-24T10:24:47;100711.44;;;8.25;100.00
56006;BME280;41888;44.696;10.522;2022-12-24T10:27:18;100718.31;;;8.48;100.00
56006;BME280;41888;44.696;10.522;2022-12-24T10:29:50;100710.34;;;8.48;100.00
56006;BME280;41888;44.696;10.522;2022-12-24T10:32:31;100711.44;;;8.54;100.00
56006;BME280;41888;44.696;10.522;2022-12-24T10:35:10;100711.06;;;8.57;100.00
56006;BME280;41888;44.696;10.522;2022-12-24T10:37:43;100715.91;;;8.68;100.00
56006;BME280;41888;44.696;10.522;2022-12-24T10:40:57;100715.91;;;8.68;100.00
56006;BME280;41888;44.696;10.522;2022-12-24T10:43:18;100712.28;;;8.55;100.00
56006;BME280;41888;44.696;10.522;2022-12-24T10:45:57;100723.78;;;8.47;100.00
56006;BME280;41888;44.696;10.522;2022-12-24T10:51:04;100713.44;;;8.52;100.00
56006;BME280;41888;44.696;10.522;2022-12-24T10:53:47;100707.97;;;8.54;100.00
56006;BME280;41888;44.696;10.522;2022-12-24T10:56:16;100687.66;;;8.46;100.00
56006;BME280;41888;44.696;10.522;2022-12-24T10:58:54;100694.25;;;8.65;100.00
56006;BME280;41888;44.696;10.522;2022-12-24T11:01:41;100687.81;;;8.74;100.00
56006;BME280;41888;44.696;10.522;2022-12-24T11:04:21;100688.81;;;8.73;100.00
56006;BME280;41888;44.696;10.522;2022-12-24T11:07:00;100699.91;;;8.76;100.00
56006;BME280;41888;44.696;10.522;2022-12-24T11:09:38;100689.66;;;8.73;100.00
56006;BME280;41888;44.696;10.522;2022-12-24T11:12:21;100695.25;;;8.64;100.00
56006;BME280;41888;44.696;10.522;2022-12-24T11:14:58;100690.38;;;8.67;100.00
56006;BME280;41888;44.696;10.522;2022-12-24T11:17:24;100704.28;;;8.69;100.00
56006;BME280;41888;44.696;10.522;2022-12-24T11:19:51;100696.59;;;8.74;100.00
56006;BME280;41888;44.696;10.522;2022-12-24T11:22:28;100708.47;;;8.78;100.00
56006;BME280;41888;44.696;10.522;2022-12-24T11:25:05;100697.34;;;8.68;100.00
56006;BME280;41888;44.696;10.522;2022-12-24T11:27:44;100706.78;;;8.71;100.00
56006;BME280;41888;44.696;10.522;2022-12-24T11:32:45;100719.84;;;8.72;100.00
56006;BME280;41888;44.696;10.522;2022-12-24T11:35:21;100716.47;;;8.64;100.00
56006;BME280;41888;44.696;10.522;2022-12-24T11:40:40;100693.59;;;8.63;100.00
56006;BME280;41888;44.696;10.522;2022-12-24T11:43:17;100686.28;;;8.65;100.00
56006;BME280;41888;44.696;10.522;2022-12-24T11:45:56;100689.38;;;8.68;100.00
56006;BME280;41888;44.696;10.522;2022-12-24T11:48:36;100683.50;;;8.73;100.00
56006;BME280;41888;44.696;10.522;2022-12-24T11:51:08;100669.31;;;8.80;100.00
56006;BME280;41888;44.696;10.522;2022-12-24T11:54:16;100667.84;;;8.78;100.00
56006;BME280;41888;44.696;10.522;2022-12-24T11:56:54;100663.75;;;8.75;100.00
56006;BME280;41888;44.696;10.522;2022-12-24T11:59:33;100678.22;;;8.73;100.00
56006;BME280;41888;44.696;10.522;2022-12-24T12:04:35;100684.72;;;8.70;100.00
56006;BME280;41888;44.696;10.522;2022-12-24T12:07:14;100676.47;;;8.80;100.00
56006;BME280;41888;44.696;10.522;2022-12-24T12:10:38;100667.25;;;8.76;100.00
56006;BME280;41888;44.696;10.522;2022-12-24T12:12:42;100673.38;;;8.76;100.00
56006;BME280;41888;44.696;10.522;2022-12-24T12:15:23;100682.41;;;8.82;100.00
56006;BME280;41888;44.696;10.522;2022-12-24T12:21:07;100687.81;;;8.74;100.00
56006;BME280;41888;44.696;10.522;2022-12-24T12:23:45;100685.91;;;8.82;100.00
56006;BME280;41888;44.696;10.522;2022-12-24T12:26:23;100678.72;;;8.83;100.00
56006;BME280;41888;44.696;10.522;2022-12-24T12:28:55;100684.25;;;8.81;100.00
56006;BME280;41888;44.696;10.522;2022-12-24T12:33:59;100692.19;;;8.81;100.00
56006;BME280;41888;44.696;10.522;2022-12-24T12:36:53;100687.34;;;8.85;100.00
56006;BME280;41888;44.696;10.522;2022-12-24T12:39:22;100693.03;;;8.82;100.00
56006;BME280;41888;44.696;10.522;2022-12-24T12:50:48;100686.50;;;8.84;100.00
56006;BME280;41888;44.696;10.522;2022-12-24T12:53:29;100709.91;;;8.96;100.00
56006;BME280;41888;44.696;10.522;2022-12-24T13:01:26;100732.13;;;8.95;100.00
56006;BME280;41888;44.696;10.522;2022-12-24T13:04:30;100726.47;;;8.98;100.00
56006;BME280;41888;44.696;10.522;2022-12-24T13:07:26;100722.34;;;8.95;100.00
56006;BME280;41888;44.696;10.522;2022-12-24T13:21:03;100689.31;;;8.98;100.00
56006;BME280;41888;44.696;10.522;2022-12-24T13:23:30;100694.25;;;9.01;100.00
56006;BME280;41888;44.696;10.522;2022-12-24T13:25:57;100692.03;;;9.04;100.00
56006;BME280;41888;44.696;10.522;2022-12-24T13:30:50;100713.34;;;9.11;100.00
56006;BME280;41888;44.696;10.522;2022-12-24T13:36:09;100720.22;;;9.05;100.00
56006;BME280;41888;44.696;10.522;2022-12-24T13:38:51;100729.66;;;9.08;100.00
56006;BME280;41888;44.696;10.522;2022-12-24T13:44:21;100735.84;;;9.15;100.00
56006;BME280;41888;44.696;10.522;2022-12-24T13:47:17;100739.69;;;9.12;100.00
56006;BME280;41888;44.696;10.522;2022-12-24T13:49:51;100739.25;;;9.09;100.00
56006;BME280;41888;44.696;10.522;2022-12-24T13:52:26;100739.88;;;9.11;100.00
56006;BME280;41888;44.696;10.522;2022-12-24T14:00:21;100741.66;;;9.04;100.00
56006;BME280;41888;44.696;10.522;2022-12-24T14:08:11;100753.56;;;8.93;100.00
56006;BME280;41888;44.696;10.522;2022-12-24T14:10:56;100735.63;;;8.95;100.00
56006;BME280;41888;44.696;10.522;2022-12-24T14:16:12;100733.88;;;9.02;100.00
56006;BME280;41888;44.696;10.522;2022-12-24T14:18:40;100726.47;;;8.98;100.00
56006;BME280;41888;44.696;10.522;2022-12-24T14:21:20;100741.75;;;8.96;100.00
56006;BME280;41888;44.696;10.522;2022-12-24T14:23:57;100732.78;;;8.97;100.00
56006;BME280;41888;44.696;10.522;2022-12-24T14:26:29;100731.41;;;9.01;100.00
56006;BME280;41888;44.696;10.522;2022-12-24T14:29:19;100740.09;;;8.95;100.00
56006;BME280;41888;44.696;10.522;2022-12-24T14:31:56;100740.09;;;8.95;100.00
56006;BME280;41888;44.696;10.522;2022-12-24T14:34:22;100745.41;;;8.95;100.00
56006;BME280;41888;44.696;10.522;2022-12-24T14:36:50;100745.16;;;8.89;100.00
56006;BME280;41888;44.696;10.522;2022-12-24T14:39:36;100746.53;;;8.85;100.00
56006;BME280;41888;44.696;10.522;2022-12-24T14:45:55;100750.28;;;8.91;100.00
56006;BME280;41888;44.696;10.522;2022-12-24T14:48:39;100748.81;;;8.88;100.00